createdAt,value
2018-10-03T00:00:04.106Z,9.70
2018-10-03T00:02:32.655Z,9.70
2018-10-03T00:05:01.193Z,9.80
2018-10-03T00:07:30.090Z,9.80
2018-10-03T00:10:01.692Z,9.80
2018-10-03T00:12:30.294Z,9.70
2018-10-03T00:14:58.886Z,9.80
2018-10-03T00:17:29.273Z,9.80
2018-10-03T00:19:57.788Z,9.80
2018-10-03T00:22:26.365Z,9.90
2018-10-03T00:24:54.934Z,10.00
2018-10-03T00:27:23.406Z,9.90
2018-10-03T00:29:51.958Z,10.00
2018-10-03T00:32:20.449Z,9.90
2018-10-03T00:34:49.009Z,10.00
2018-10-03T00:37:17.609Z,10.00
2018-10-03T00:39:46.153Z,10.00
2018-10-03T00:42:14.720Z,9.90
2018-10-03T00:44:43.311Z,9.80
2018-10-03T00:47:11.932Z,9.80
2018-10-03T00:49:41.934Z,9.90
2018-10-03T00:52:10.533Z,9.90
2018-10-03T00:54:39.024Z,9.80
2018-10-03T00:57:07.524Z,9.80
2018-10-03T00:59:36.088Z,9.70
2018-10-03T01:02:04.665Z,9.80
2018-10-03T01:04:33.169Z,9.80
2018-10-03T01:07:01.760Z,9.80
2018-10-03T01:09:30.443Z,9.70
2018-10-03T01:11:58.960Z,9.70
2018-10-03T01:14:27.486Z,9.70
2018-10-03T01:16:56.014Z,9.80
2018-10-03T01:19:24.548Z,9.70
2018-10-03T01:21:53.128Z,9.70
2018-10-03T01:24:21.635Z,9.70
2018-10-03T01:26:50.173Z,9.70
2018-10-03T01:29:18.684Z,9.70
2018-10-03T01:31:47.258Z,9.80
2018-10-03T01:34:15.763Z,9.70
2018-10-03T01:36:44.285Z,9.80
2018-10-03T01:39:12.824Z,9.80
2018-10-03T01:41:41.468Z,9.80
2018-10-03T01:44:10.059Z,9.70
2018-10-03T01:46:38.889Z,9.80
2018-10-03T01:49:07.892Z,9.80
2018-10-03T01:51:36.529Z,9.80
2018-10-03T01:54:06.533Z,9.80
2018-10-03T01:56:35.029Z,9.70
2018-10-03T01:59:03.603Z,9.70
2018-10-03T02:01:32.100Z,9.60
2018-10-03T02:04:00.620Z,9.50
2018-10-03T02:06:29.177Z,9.40
2018-10-03T02:08:57.729Z,9.40
2018-10-03T02:11:26.275Z,9.40
2018-10-03T02:13:54.817Z,9.30
2018-10-03T02:16:23.467Z,9.30
2018-10-03T02:18:51.918Z,9.20
2018-10-03T02:21:20.478Z,9.20
2018-10-03T02:23:49.060Z,9.20
2018-10-03T02:26:18.743Z,9.10
2018-10-03T02:28:47.376Z,9.10
2018-10-03T02:31:15.852Z,9.20
2018-10-03T02:33:44.408Z,9.20
2018-10-03T02:36:12.934Z,9.20
2018-10-03T02:38:41.444Z,9.10
2018-10-03T02:41:09.973Z,9.20
2018-10-03T02:43:38.471Z,9.30
2018-10-03T02:46:07.024Z,9.20
2018-10-03T02:48:35.566Z,9.20
2018-10-03T02:51:04.096Z,9.20
2018-10-03T02:53:32.775Z,9.20
2018-10-03T02:56:01.423Z,9.20
2018-10-03T02:58:29.977Z,9.30
2018-10-03T03:00:58.454Z,9.30
2018-10-03T03:03:27.005Z,9.30
2018-10-03T03:05:55.515Z,9.30
2018-10-03T03:08:24.082Z,9.30
2018-10-03T03:10:52.633Z,9.40
2018-10-03T03:13:21.196Z,9.30
2018-10-03T03:15:49.796Z,9.30
2018-10-03T03:18:18.326Z,9.30
2018-10-03T03:20:46.839Z,9.30
2018-10-03T03:23:15.345Z,9.30
2018-10-03T03:25:43.886Z,9.30
2018-10-03T03:28:12.826Z,9.30
2018-10-03T03:30:41.365Z,9.30
2018-10-03T03:33:09.936Z,9.30
2018-10-03T03:35:38.564Z,9.40
2018-10-03T03:38:07.043Z,9.40
2018-10-03T03:40:35.643Z,9.30
2018-10-03T03:43:04.176Z,9.30
2018-10-03T03:45:32.749Z,9.40
2018-10-03T03:48:01.308Z,9.30
2018-10-03T03:50:30.199Z,9.30
2018-10-03T03:52:58.739Z,9.30
2018-10-03T03:55:27.228Z,9.30
2018-10-03T03:57:55.786Z,9.30
2018-10-03T04:00:26.193Z,9.30
2018-10-03T04:02:54.715Z,9.30
2018-10-03T04:05:23.228Z,9.30
2018-10-03T04:07:51.798Z,9.30
2018-10-03T04:10:20.319Z,9.30
2018-10-03T04:12:48.808Z,9.30
2018-10-03T04:15:17.352Z,9.40
2018-10-03T04:17:46.098Z,9.40
2018-10-03T04:20:14.614Z,9.40
2018-10-03T04:22:43.179Z,9.40
2018-10-03T04:25:11.727Z,9.30
2018-10-03T04:27:40.243Z,9.30
2018-10-03T04:30:08.774Z,9.30
2018-10-03T04:32:39.815Z,9.30
2018-10-03T04:35:08.409Z,9.40
2018-10-03T04:37:36.922Z,9.40
2018-10-03T04:40:05.503Z,9.40
2018-10-03T04:42:34.058Z,9.40
2018-10-03T04:45:02.591Z,9.40
2018-10-03T04:47:31.146Z,9.30
2018-10-03T04:49:59.679Z,9.40
2018-10-03T04:52:28.216Z,9.30
2018-10-03T04:54:56.813Z,9.30
2018-10-03T04:57:25.330Z,9.30
2018-10-03T04:59:53.851Z,9.30
2018-10-03T05:02:22.436Z,9.30
2018-10-03T05:04:52.067Z,9.30
2018-10-03T05:07:20.636Z,9.40
2018-10-03T05:09:49.138Z,9.40
2018-10-03T05:12:17.666Z,9.30
2018-10-03T05:14:46.283Z,9.40
2018-10-03T05:17:14.815Z,9.40
2018-10-03T05:19:43.383Z,9.40
2018-10-03T05:22:11.878Z,9.40
2018-10-03T05:24:40.512Z,9.50
2018-10-03T05:27:09.062Z,9.50
2018-10-03T05:29:37.562Z,9.50
2018-10-03T05:32:06.106Z,9.50
2018-10-03T05:34:34.653Z,9.50
2018-10-03T05:37:03.215Z,9.40
2018-10-03T05:39:31.716Z,9.30
2018-10-03T05:42:00.314Z,9.20
2018-10-03T05:44:28.776Z,9.30
2018-10-03T05:46:57.317Z,9.30
2018-10-03T05:49:25.875Z,9.30
2018-10-03T05:51:54.401Z,9.20
2018-10-03T05:54:22.937Z,9.10
2018-10-03T05:56:51.409Z,9.10
2018-10-03T05:59:19.946Z,9.10
2018-10-03T06:01:48.514Z,9.10
2018-10-03T06:04:17.153Z,9.20
2018-10-03T06:06:45.660Z,9.20
2018-10-03T06:09:14.176Z,9.20
2018-10-03T06:11:43.238Z,9.30
2018-10-03T06:14:12.268Z,9.30
2018-10-03T06:16:40.832Z,9.30
2018-10-03T06:19:09.455Z,9.30
2018-10-03T06:21:38.057Z,9.30
2018-10-03T06:24:06.227Z,9.40
2018-10-03T06:26:34.769Z,9.40
2018-10-03T06:29:03.484Z,9.40
2018-10-03T06:31:32.060Z,9.30
2018-10-03T06:34:00.664Z,9.30
2018-10-03T06:36:29.193Z,9.30
2018-10-03T06:38:57.665Z,9.30
2018-10-03T06:41:26.307Z,9.40
2018-10-03T06:43:54.848Z,9.40
2018-10-03T06:46:23.435Z,9.50
2018-10-03T06:48:51.915Z,9.50
2018-10-03T06:51:20.463Z,9.60
2018-10-03T06:53:48.972Z,9.60
2018-10-03T06:56:17.470Z,9.70
2018-10-03T06:58:46.004Z,9.70
2018-10-03T07:01:14.848Z,9.70
2018-10-03T07:03:43.467Z,9.70
2018-10-03T07:06:12.005Z,9.70
2018-10-03T07:08:40.588Z,9.60
2018-10-03T07:11:09.111Z,9.60
2018-10-03T07:13:37.641Z,9.60
2018-10-03T07:16:06.133Z,9.50
2018-10-03T07:18:34.763Z,9.40
2018-10-03T07:21:03.360Z,9.40
2018-10-03T07:23:31.882Z,9.40
2018-10-03T07:26:00.493Z,9.40
2018-10-03T07:28:28.992Z,9.50
2018-10-03T07:30:57.478Z,9.50
2018-10-03T07:33:26.009Z,9.60
2018-10-03T07:35:54.844Z,9.70
2018-10-03T07:38:23.379Z,9.90
2018-10-03T07:40:51.958Z,10.00
2018-10-03T07:43:22.149Z,10.10
2018-10-03T07:45:50.665Z,10.20
2018-10-03T07:48:19.258Z,10.30
2018-10-03T07:50:47.846Z,10.50
2018-10-03T07:53:16.425Z,10.60
2018-10-03T07:55:44.969Z,10.50
2018-10-03T07:58:13.509Z,10.40
2018-10-03T08:00:42.039Z,10.40
2018-10-03T08:03:13.097Z,10.40
2018-10-03T08:05:41.576Z,10.50
2018-10-03T08:08:10.121Z,10.80
2018-10-03T08:10:39.647Z,10.80
2018-10-03T08:13:08.365Z,11.00
2018-10-03T08:15:37.110Z,11.10
2018-10-03T08:18:05.775Z,11.20
2018-10-03T08:20:34.384Z,11.40
2018-10-03T08:23:03.003Z,11.70
2018-10-03T08:25:31.628Z,12.00
2018-10-03T08:28:00.175Z,11.90
2018-10-03T08:30:28.755Z,11.60
2018-10-03T08:32:57.400Z,11.50
2018-10-03T08:35:25.992Z,11.70
2018-10-03T08:37:54.547Z,12.20
2018-10-03T08:40:23.092Z,12.20
2018-10-03T08:42:51.659Z,12.00
2018-10-03T08:45:20.332Z,11.80
2018-10-03T08:47:50.688Z,11.70
2018-10-03T08:50:20.441Z,11.50
2018-10-03T08:52:49.096Z,11.50
2018-10-03T08:55:17.748Z,11.50
2018-10-03T08:57:46.612Z,11.40
2018-10-03T09:00:15.368Z,11.50
2018-10-03T09:02:43.973Z,11.50
2018-10-03T09:05:13.201Z,11.60
2018-10-03T09:07:41.772Z,12.00
2018-10-03T09:10:10.577Z,12.30
2018-10-03T09:12:39.141Z,12.50
2018-10-03T09:15:07.697Z,13.10
2018-10-03T09:17:36.303Z,13.00
2018-10-03T09:20:05.074Z,13.00
2018-10-03T09:22:33.614Z,12.80
2018-10-03T09:25:02.134Z,12.90
2018-10-03T09:27:30.715Z,12.90
2018-10-03T09:29:59.209Z,12.70
2018-10-03T09:32:27.761Z,13.10
2018-10-03T09:34:56.304Z,13.00
2018-10-03T09:37:24.936Z,12.70
2018-10-03T09:39:53.491Z,12.60
2018-10-03T09:42:21.996Z,12.40
2018-10-03T09:44:50.531Z,12.50
2018-10-03T09:47:19.004Z,12.60
2018-10-03T09:49:47.530Z,12.60
2018-10-03T09:52:16.088Z,12.60
2018-10-03T09:54:44.585Z,12.70
2018-10-03T09:57:13.111Z,12.60
2018-10-03T09:59:41.640Z,12.50
2018-10-03T10:02:10.086Z,12.70
2018-10-03T10:04:38.630Z,12.70
2018-10-03T10:07:07.132Z,12.60
2018-10-03T10:09:35.628Z,12.60
2018-10-03T10:12:04.220Z,12.70
2018-10-03T10:14:32.920Z,12.90
2018-10-03T10:17:01.454Z,13.10
2018-10-03T10:19:29.977Z,13.50
2018-10-03T10:22:00.372Z,14.20
2018-10-03T10:24:32.060Z,14.30
2018-10-03T10:27:00.627Z,14.10
2018-10-03T10:29:29.080Z,13.80
2018-10-03T10:31:57.692Z,14.00
2018-10-03T10:34:26.240Z,14.60
2018-10-03T10:36:54.758Z,14.20
2018-10-03T10:39:23.366Z,14.10
2018-10-03T10:41:51.848Z,14.40
2018-10-03T10:44:20.303Z,14.50
2018-10-03T10:46:49.078Z,14.70
2018-10-03T10:49:17.575Z,14.60
2018-10-03T10:51:46.117Z,14.30
2018-10-03T10:54:14.575Z,14.10
2018-10-03T10:56:43.119Z,13.80
2018-10-03T10:59:11.681Z,13.80
2018-10-03T11:01:40.317Z,14.80
2018-10-03T11:04:08.855Z,14.90
2018-10-03T11:06:37.380Z,14.70
2018-10-03T11:09:07.244Z,14.30
2018-10-03T11:11:35.761Z,14.40
2018-10-03T11:14:04.370Z,15.30
2018-10-03T11:16:32.942Z,15.60
2018-10-03T11:19:01.520Z,15.70
2018-10-03T11:21:30.044Z,14.80
2018-10-03T11:23:58.764Z,14.70
2018-10-03T11:26:27.316Z,14.30
2018-10-03T11:28:55.824Z,14.30
2018-10-03T11:31:24.517Z,14.20
2018-10-03T11:33:53.155Z,15.00
2018-10-03T11:36:21.777Z,15.90
2018-10-03T11:38:50.376Z,16.00
2018-10-03T11:41:19.043Z,15.90
2018-10-03T11:43:47.736Z,16.40
2018-10-03T11:46:16.448Z,16.30
2018-10-03T11:48:45.107Z,16.30
2018-10-03T11:51:13.816Z,15.70
2018-10-03T11:53:42.377Z,15.30
2018-10-03T11:56:11.084Z,14.90
2018-10-03T11:58:40.989Z,15.30
2018-10-03T12:01:09.646Z,15.00
2018-10-03T12:03:38.357Z,14.30
2018-10-03T12:06:07.093Z,14.40
2018-10-03T12:08:35.617Z,14.60
2018-10-03T12:11:04.094Z,15.60
2018-10-03T12:13:33.079Z,15.90
2018-10-03T12:16:01.630Z,16.40
2018-10-03T12:18:30.676Z,16.60
2018-10-03T12:20:59.287Z,16.60
2018-10-03T12:23:27.764Z,16.00
2018-10-03T12:25:56.287Z,16.00
2018-10-03T12:28:24.851Z,16.00
2018-10-03T12:30:54.712Z,15.70
2018-10-03T12:33:23.274Z,15.80
2018-10-03T12:35:51.846Z,15.80
2018-10-03T12:38:20.334Z,16.20
2018-10-03T12:40:48.948Z,15.90
2018-10-03T12:43:17.532Z,15.70
2018-10-03T12:45:46.071Z,15.50
2018-10-03T12:48:14.564Z,15.30
2018-10-03T12:50:43.245Z,15.30
2018-10-03T12:53:11.993Z,15.30
2018-10-03T12:55:40.699Z,15.20
2018-10-03T12:58:09.383Z,15.30
2018-10-03T13:00:38.019Z,15.30
2018-10-03T13:03:07.135Z,15.30
2018-10-03T13:05:35.779Z,15.10
2018-10-03T13:08:05.310Z,15.00
2018-10-03T13:10:34.197Z,14.90
2018-10-03T13:13:02.808Z,15.00
2018-10-03T13:15:31.491Z,14.90
2018-10-03T13:18:00.389Z,15.10
2018-10-03T13:20:28.986Z,15.20
2018-10-03T13:22:57.549Z,15.00
2018-10-03T13:25:26.059Z,15.20
2018-10-03T13:27:54.570Z,14.90
2018-10-03T13:30:23.139Z,14.80
2018-10-03T13:32:51.747Z,14.60
2018-10-03T13:35:20.242Z,14.50
2018-10-03T13:37:48.880Z,14.30
2018-10-03T13:40:17.387Z,14.40
2018-10-03T13:42:45.988Z,14.40
2018-10-03T13:45:14.601Z,14.30
2018-10-03T13:47:43.266Z,14.30
2018-10-03T13:50:11.779Z,14.30
2018-10-03T13:52:40.303Z,14.30
2018-10-03T13:55:08.868Z,14.40
2018-10-03T13:57:37.378Z,14.30
2018-10-03T14:00:06.236Z,14.40
2018-10-03T14:02:41.523Z,14.30
2018-10-03T14:05:10.033Z,14.10
2018-10-03T14:07:38.650Z,13.90
2018-10-03T14:10:07.413Z,13.90
2018-10-03T14:12:35.925Z,13.80
2018-10-03T14:15:04.763Z,13.90
2018-10-03T14:17:33.258Z,13.80
2018-10-03T14:20:01.963Z,13.80
2018-10-03T14:22:30.580Z,13.70
2018-10-03T14:24:59.113Z,13.70
2018-10-03T14:27:27.691Z,13.60
2018-10-03T14:29:56.211Z,13.50
2018-10-03T14:32:24.764Z,13.50
2018-10-03T14:34:53.274Z,13.50
2018-10-03T14:37:23.288Z,13.50
2018-10-03T14:39:52.034Z,13.50
2018-10-03T14:42:20.503Z,13.40
2018-10-03T14:44:49.087Z,13.40
2018-10-03T14:47:17.737Z,13.40
2018-10-03T14:49:46.323Z,13.40
2018-10-03T14:52:15.034Z,13.30
2018-10-03T14:54:43.651Z,13.30
2018-10-03T14:57:12.286Z,13.30
2018-10-03T14:59:40.883Z,13.30
2018-10-03T15:02:09.793Z,13.40
2018-10-03T15:04:38.420Z,13.40
2018-10-03T15:07:07.560Z,13.40
2018-10-03T15:09:37.931Z,13.30
2018-10-03T15:12:06.454Z,13.30
2018-10-03T15:14:34.998Z,13.30
2018-10-03T15:17:03.572Z,13.30
2018-10-03T15:19:32.031Z,13.30
2018-10-03T15:22:00.479Z,13.30
2018-10-03T15:24:29.049Z,13.20
2018-10-03T15:26:57.517Z,13.20
2018-10-03T15:29:25.996Z,13.20
2018-10-03T15:31:54.571Z,13.10
2018-10-03T15:34:23.076Z,13.10
2018-10-03T15:36:51.840Z,13.00
2018-10-03T15:39:20.346Z,13.00
2018-10-03T15:41:49.231Z,12.90
2018-10-03T15:44:17.866Z,12.80
2018-10-03T15:46:46.320Z,12.80
2018-10-03T15:49:14.879Z,12.80
2018-10-03T15:51:43.395Z,12.60
2018-10-03T15:54:12.428Z,12.60
2018-10-03T15:56:41.221Z,12.50
2018-10-03T15:59:09.914Z,12.50
2018-10-03T16:01:38.422Z,12.40
2018-10-03T16:04:07.466Z,12.30
2018-10-03T16:06:36.086Z,12.30
2018-10-03T16:09:07.619Z,12.20
2018-10-03T16:11:37.741Z,12.20
2018-10-03T16:14:06.385Z,12.10
2018-10-03T16:16:34.984Z,12.00
2018-10-03T16:19:03.472Z,12.00
2018-10-03T16:21:32.020Z,11.90
2018-10-03T16:24:00.981Z,11.80
2018-10-03T16:26:29.615Z,11.80
2018-10-03T16:28:58.078Z,11.80
2018-10-03T16:31:27.449Z,11.70
2018-10-03T16:33:56.340Z,11.70
2018-10-03T16:36:25.380Z,11.50
2018-10-03T16:38:54.280Z,11.40
2018-10-03T16:41:22.999Z,11.20
2018-10-03T16:43:51.733Z,11.20
2018-10-03T16:46:20.350Z,11.10
2018-10-03T16:48:49.217Z,11.00
2018-10-03T16:51:18.051Z,10.90
2018-10-03T16:53:46.891Z,10.70
2018-10-03T16:56:15.500Z,10.70
2018-10-03T16:58:44.094Z,10.80
2018-10-03T17:01:12.688Z,10.70
2018-10-03T17:03:44.280Z,10.60
2018-10-03T17:06:12.934Z,10.50
2018-10-03T17:08:41.645Z,10.50
2018-10-03T17:11:10.210Z,10.30
2018-10-03T17:13:50.933Z,10.30
2018-10-03T17:16:19.702Z,10.30
2018-10-03T17:18:48.340Z,10.20
2018-10-03T17:21:17.011Z,10.20
2018-10-03T17:23:45.524Z,10.10
2018-10-03T17:26:14.084Z,10.10
2018-10-03T17:28:42.570Z,10.10
2018-10-03T17:31:11.194Z,10.10
2018-10-03T17:33:39.717Z,10.10
2018-10-03T17:36:08.284Z,10.00
2018-10-03T17:38:36.906Z,9.90
2018-10-03T17:41:05.500Z,10.10
2018-10-03T17:43:34.137Z,10.00
2018-10-03T17:46:02.815Z,9.90
2018-10-03T17:48:31.441Z,9.80
2018-10-03T17:51:00.031Z,9.90
2018-10-03T17:53:28.723Z,9.80
2018-10-03T17:55:57.388Z,9.90
2018-10-03T17:58:26.146Z,9.90
2018-10-03T18:00:55.094Z,9.90
2018-10-03T18:03:23.914Z,9.90
2018-10-03T18:05:53.692Z,9.80
2018-10-03T18:08:22.422Z,9.70
2018-10-03T18:10:51.611Z,9.70
2018-10-03T18:13:20.824Z,9.80
2018-10-03T18:15:49.958Z,9.80
2018-10-03T18:18:18.893Z,9.80
2018-10-03T18:20:49.798Z,9.70
2018-10-03T18:23:18.597Z,9.80
2018-10-03T18:25:47.612Z,9.80
2018-10-03T18:28:16.476Z,9.80
2018-10-03T18:30:45.269Z,9.70
2018-10-03T18:33:15.191Z,9.80
2018-10-03T18:35:43.861Z,9.80
2018-10-03T18:38:12.677Z,9.70
2018-10-03T18:40:41.754Z,9.60
2018-10-03T18:43:10.631Z,9.60
2018-10-03T18:45:39.530Z,9.70
2018-10-03T18:48:08.438Z,9.60
2018-10-03T18:50:37.721Z,9.60
2018-10-03T18:53:08.394Z,9.60
2018-10-03T18:55:37.019Z,9.60
2018-10-03T18:58:05.866Z,9.50
2018-10-03T19:00:34.723Z,9.40
2018-10-03T19:03:03.427Z,9.40
2018-10-03T19:05:32.235Z,9.40
2018-10-03T19:08:00.982Z,9.30
2018-10-03T19:10:29.724Z,9.20
2018-10-03T19:12:58.433Z,9.30
2018-10-03T19:15:27.157Z,9.20
2018-10-03T19:17:55.772Z,9.10
2018-10-03T19:20:24.303Z,9.10
2018-10-03T19:22:52.912Z,9.00
2018-10-03T19:25:21.504Z,9.00
2018-10-03T19:27:50.148Z,8.90
2018-10-03T19:30:18.728Z,8.80
2018-10-03T19:32:47.430Z,8.80
2018-10-03T19:35:16.098Z,8.70
2018-10-03T19:37:45.638Z,8.70
2018-10-03T19:40:14.471Z,8.70
2018-10-03T19:42:43.203Z,8.70
2018-10-03T19:45:11.951Z,8.70
2018-10-03T19:47:40.559Z,8.70
2018-10-03T19:50:09.417Z,8.60
2018-10-03T19:52:38.186Z,8.60
2018-10-03T19:55:06.849Z,8.50
2018-10-03T19:57:35.482Z,8.50
2018-10-03T20:00:04.604Z,8.60
2018-10-03T20:02:33.221Z,8.50
2018-10-03T20:05:01.802Z,8.50
2018-10-03T20:07:30.402Z,8.60
2018-10-03T20:09:59.004Z,8.50
2018-10-03T20:12:27.658Z,8.50
2018-10-03T20:14:56.310Z,8.60
2018-10-03T20:17:24.992Z,8.60
2018-10-03T20:19:53.641Z,8.60
2018-10-03T20:22:22.336Z,8.60
2018-10-03T20:24:50.914Z,8.60
2018-10-03T20:27:19.595Z,8.70
2018-10-03T20:29:48.274Z,8.70
2018-10-03T20:32:17.726Z,8.80
2018-10-03T20:34:46.449Z,8.70
2018-10-03T20:37:14.962Z,8.70
2018-10-03T20:39:43.491Z,8.60
2018-10-03T20:42:12.060Z,8.70
2018-10-03T20:44:40.626Z,8.70
2018-10-03T20:47:09.123Z,8.70
2018-10-03T20:49:37.647Z,8.70
2018-10-03T20:52:06.810Z,8.70
2018-10-03T20:54:35.387Z,8.80
2018-10-03T20:57:04.153Z,8.80
2018-10-03T20:59:33.072Z,8.70
2018-10-03T21:02:01.814Z,8.80
2018-10-03T21:04:30.395Z,8.60
2018-10-03T21:06:59.200Z,8.60
2018-10-03T21:09:27.842Z,8.60
2018-10-03T21:12:18.770Z,8.60
2018-10-03T21:14:48.935Z,8.50
2018-10-03T21:17:19.725Z,8.60
2018-10-03T21:19:49.625Z,8.50
2018-10-03T21:22:19.181Z,8.50
2018-10-03T21:24:48.479Z,8.50
2018-10-03T21:27:19.540Z,8.40
2018-10-03T21:29:49.246Z,8.40
2018-10-03T21:32:21.024Z,8.40
2018-10-03T21:34:51.537Z,8.30
2018-10-03T21:37:20.386Z,8.30
2018-10-03T21:40:05.302Z,8.30
2018-10-03T21:42:34.876Z,8.30
2018-10-03T21:45:05.873Z,8.30
2018-10-03T21:47:35.145Z,8.20
2018-10-03T21:50:04.785Z,8.30
2018-10-03T21:52:33.930Z,8.30
2018-10-03T21:55:12.509Z,8.20
2018-10-03T21:57:41.329Z,8.10
2018-10-03T22:00:10.180Z,8.00
2018-10-03T22:02:40.247Z,8.00
2018-10-03T22:05:10.382Z,8.00
2018-10-03T22:07:39.807Z,8.10
2018-10-03T22:10:09.646Z,8.00
2018-10-03T22:12:40.080Z,8.00
2018-10-03T22:15:08.957Z,7.90
2018-10-03T22:17:40.428Z,8.00
2018-10-03T22:20:10.220Z,7.90
2018-10-03T22:22:39.078Z,7.80
2018-10-03T22:25:07.957Z,7.80
2018-10-03T22:27:36.877Z,7.70
2018-10-03T22:30:05.925Z,7.70
2018-10-03T22:32:34.670Z,7.70
2018-10-03T22:35:03.521Z,7.70
2018-10-03T22:37:32.323Z,7.70
2018-10-03T22:40:01.049Z,7.60
2018-10-03T22:42:29.828Z,7.70
2018-10-03T22:44:58.610Z,7.70
2018-10-03T22:47:27.424Z,7.80
2018-10-03T22:49:56.299Z,7.80
2018-10-03T22:52:27.918Z,7.70
2018-10-03T22:54:56.757Z,7.60
2018-10-03T22:57:25.589Z,7.60
2018-10-03T22:59:54.444Z,7.70
2018-10-03T23:02:23.247Z,7.70
2018-10-03T23:04:52.110Z,7.60
2018-10-03T23:07:21.107Z,7.50
2018-10-03T23:09:49.896Z,7.50
2018-10-03T23:12:18.791Z,7.50
2018-10-03T23:14:47.625Z,7.50
2018-10-03T23:17:16.333Z,7.50
2018-10-03T23:19:45.282Z,7.50
2018-10-03T23:22:14.350Z,7.60
2018-10-03T23:24:43.684Z,7.50
2018-10-03T23:27:12.615Z,7.40
2018-10-03T23:29:41.364Z,7.40
2018-10-03T23:32:10.080Z,7.50
2018-10-03T23:34:39.108Z,7.50
2018-10-03T23:37:08.231Z,7.50
2018-10-03T23:39:37.021Z,7.50
2018-10-03T23:42:06.004Z,7.40
2018-10-03T23:44:34.689Z,7.30
2018-10-03T23:47:04.118Z,7.30
2018-10-03T23:49:32.930Z,7.40
2018-10-03T23:52:02.380Z,7.40
2018-10-03T23:54:31.225Z,7.30
2018-10-03T23:57:00.646Z,7.30
2018-10-03T23:59:29.442Z,7.40
